sensor_id;sensor_type;location;lat;lon;timestamp;P1;durP1;ratioP1;P2;durP2;ratioP2
1699;SDS011;847;48.058;7.810;2024-03-08T00:01:31;28.90;;;15.17;;
1699;SDS011;847;48.058;7.810;2024-03-08T00:04:02;24.23;;;14.67;;
1699;SDS011;847;48.058;7.810;2024-03-08T00:06:31;24.97;;;13.60;;
1699;SDS011;847;48.058;7.810;2024-03-08T00:08:59;20.27;;;14.00;;
1699;SDS011;847;48.058;7.810;2024-03-08T00:11:27;19.80;;;13.27;;
1699;SDS011;847;48.058;7.810;2024-03-08T00:13:56;23.20;;;13.67;;
1699;SDS011;847;48.058;7.810;2024-03-08T00:16:23;24.37;;;14.50;;
1699;SDS011;847;48.058;7.810;2024-03-08T00:18:52;22.60;;;13.00;;
1699;SDS011;847;48.058;7.810;2024-03-08T00:21:21;23.23;;;13.27;;
1699;SDS011;847;48.058;7.810;2024-03-08T00:23:57;21.20;;;13.90;;
1699;SDS011;847;48.058;7.810;2024-03-08T00:26:42;23.57;;;13.33;;
1699;SDS011;847;48.058;7.810;2024-03-08T00:29:14;22.80;;;13.80;;
1699;SDS011;847;48.058;7.810;2024-03-08T00:31:44;23.37;;;14.80;;
1699;SDS011;847;48.058;7.810;2024-03-08T00:34:13;23.17;;;13.37;;
1699;SDS011;847;48.058;7.810;2024-03-08T00:36:44;22.37;;;13.80;;
1699;SDS011;847;48.058;7.810;2024-03-08T00:39:14;22.73;;;14.07;;
1699;SDS011;847;48.058;7.810;2024-03-08T00:41:45;28.53;;;15.67;;
1699;SDS011;847;48.058;7.810;2024-03-08T00:44:12;24.43;;;14.30;;
1699;SDS011;847;48.058;7.810;2024-03-08T00:46:42;24.43;;;14.43;;
1699;SDS011;847;48.058;7.810;2024-03-08T00:49:13;21.17;;;12.97;;
1699;SDS011;847;48.058;7.810;2024-03-08T00:51:40;21.80;;;13.20;;
1699;SDS011;847;48.058;7.810;2024-03-08T00:54:10;19.47;;;12.17;;
1699;SDS011;847;48.058;7.810;2024-03-08T00:56:41;19.77;;;12.53;;
1699;SDS011;847;48.058;7.810;2024-03-08T00:59:08;20.47;;;12.60;;
1699;SDS011;847;48.058;7.810;2024-03-08T01:01:36;21.60;;;12.40;;
1699;SDS011;847;48.058;7.810;2024-03-08T01:04:05;20.07;;;12.33;;
1699;SDS011;847;48.058;7.810;2024-03-08T01:06:33;20.77;;;12.33;;
1699;SDS011;847;48.058;7.810;2024-03-08T01:09:02;29.00;;;14.87;;
1699;SDS011;847;48.058;7.810;2024-03-08T01:11:32;23.53;;;14.43;;
1699;SDS011;847;48.058;7.810;2024-03-08T01:14:00;27.63;;;15.30;;
1699;SDS011;847;48.058;7.810;2024-03-08T01:16:28;20.90;;;14.00;;
1699;SDS011;847;48.058;7.810;2024-03-08T01:18:57;23.60;;;14.60;;
1699;SDS011;847;48.058;7.810;2024-03-08T01:21:24;23.73;;;14.33;;
1699;SDS011;847;48.058;7.810;2024-03-08T01:23:52;25.13;;;13.97;;
1699;SDS011;847;48.058;7.810;2024-03-08T01:26:20;21.90;;;13.47;;
1699;SDS011;847;48.058;7.810;2024-03-08T01:28:48;23.93;;;13.53;;
1699;SDS011;847;48.058;7.810;2024-03-08T01:31:16;24.17;;;13.40;;
1699;SDS011;847;48.058;7.810;2024-03-08T01:33:44;22.30;;;14.00;;
1699;SDS011;847;48.058;7.810;2024-03-08T01:36:11;22.57;;;13.37;;
1699;SDS011;847;48.058;7.810;2024-03-08T01:38:40;22.03;;;14.43;;
1699;SDS011;847;48.058;7.810;2024-03-08T01:41:08;23.03;;;14.23;;
1699;SDS011;847;48.058;7.810;2024-03-08T01:43:39;26.67;;;14.70;;
1699;SDS011;847;48.058;7.810;2024-03-08T01:46:06;24.20;;;16.20;;
1699;SDS011;847;48.058;7.810;2024-03-08T01:48:36;23.43;;;13.40;;
1699;SDS011;847;48.058;7.810;2024-03-08T01:51:07;23.83;;;13.40;;
1699;SDS011;847;48.058;7.810;2024-03-08T01:53:34;25.10;;;14.47;;
1699;SDS011;847;48.058;7.810;2024-03-08T01:56:02;23.57;;;14.03;;
1699;SDS011;847;48.058;7.810;2024-03-08T01:58:30;24.17;;;13.53;;
1699;SDS011;847;48.058;7.810;2024-03-08T02:01:02;23.40;;;13.37;;
1699;SDS011;847;48.058;7.810;2024-03-08T02:03:32;24.77;;;13.93;;
1699;SDS011;847;48.058;7.810;2024-03-08T02:05:59;27.00;;;14.27;;
1699;SDS011;847;48.058;7.810;2024-03-08T02:08:28;20.30;;;12.90;;
1699;SDS011;847;48.058;7.810;2024-03-08T02:10:56;26.50;;;12.23;;
1699;SDS011;847;48.058;7.810;2024-03-08T02:13:32;20.40;;;12.47;;
1699;SDS011;847;48.058;7.810;2024-03-08T02:16:01;24.50;;;13.93;;
1699;SDS011;847;48.058;7.810;2024-03-08T02:18:30;23.23;;;15.40;;
1699;SDS011;847;48.058;7.810;2024-03-08T02:21:06;25.57;;;14.17;;
1699;SDS011;847;48.058;7.810;2024-03-08T02:23:34;26.30;;;14.23;;
1699;SDS011;847;48.058;7.810;2024-03-08T02:26:03;23.47;;;13.13;;
1699;SDS011;847;48.058;7.810;2024-03-08T02:28:31;23.90;;;13.83;;
1699;SDS011;847;48.058;7.810;2024-03-08T02:30:59;28.00;;;13.90;;
1699;SDS011;847;48.058;7.810;2024-03-08T02:33:27;21.90;;;12.80;;
1699;SDS011;847;48.058;7.810;2024-03-08T02:35:55;24.33;;;14.20;;
1699;SDS011;847;48.058;7.810;2024-03-08T02:38:24;25.00;;;14.10;;
1699;SDS011;847;48.058;7.810;2024-03-08T02:40:52;22.53;;;15.77;;
1699;SDS011;847;48.058;7.810;2024-03-08T02:43:21;24.73;;;14.50;;
1699;SDS011;847;48.058;7.810;2024-03-08T02:45:49;22.00;;;12.73;;
1699;SDS011;847;48.058;7.810;2024-03-08T02:48:18;23.03;;;13.60;;
1699;SDS011;847;48.058;7.810;2024-03-08T02:50:47;23.63;;;13.73;;
1699;SDS011;847;48.058;7.810;2024-03-08T02:53:19;22.20;;;12.80;;
1699;SDS011;847;48.058;7.810;2024-03-08T02:55:53;23.70;;;14.43;;
1699;SDS011;847;48.058;7.810;2024-03-08T02:58:20;28.03;;;15.00;;
1699;SDS011;847;48.058;7.810;2024-03-08T03:00:48;20.90;;;13.70;;
1699;SDS011;847;48.058;7.810;2024-03-08T03:03:16;21.83;;;14.43;;
1699;SDS011;847;48.058;7.810;2024-03-08T03:05:43;22.27;;;14.13;;
1699;SDS011;847;48.058;7.810;2024-03-08T03:08:10;26.23;;;13.70;;
1699;SDS011;847;48.058;7.810;2024-03-08T03:10:38;23.00;;;12.97;;
1699;SDS011;847;48.058;7.810;2024-03-08T03:13:07;22.30;;;13.70;;
1699;SDS011;847;48.058;7.810;2024-03-08T03:15:35;21.23;;;13.53;;
1699;SDS011;847;48.058;7.810;2024-03-08T03:18:03;26.20;;;15.17;;
1699;SDS011;847;48.058;7.810;2024-03-08T03:20:32;28.90;;;14.17;;
1699;SDS011;847;48.058;7.810;2024-03-08T03:23:05;22.40;;;13.13;;
1699;SDS011;847;48.058;7.810;2024-03-08T03:25:34;21.53;;;13.20;;
1699;SDS011;847;48.058;7.810;2024-03-08T03:28:04;27.53;;;14.40;;
1699;SDS011;847;48.058;7.810;2024-03-08T03:30:34;20.80;;;12.90;;
1699;SDS011;847;48.058;7.810;2024-03-08T03:33:01;23.03;;;14.13;;
1699;SDS011;847;48.058;7.810;2024-03-08T03:35:31;23.63;;;13.20;;
1699;SDS011;847;48.058;7.810;2024-03-08T03:37:59;22.73;;;14.53;;
1699;SDS011;847;48.058;7.810;2024-03-08T03:40:31;23.57;;;13.20;;
1699;SDS011;847;48.058;7.810;2024-03-08T03:43:00;22.47;;;13.53;;
1699;SDS011;847;48.058;7.810;2024-03-08T03:45:27;25.40;;;14.47;;
1699;SDS011;847;48.058;7.810;2024-03-08T03:48:00;24.17;;;13.60;;
1699;SDS011;847;48.058;7.810;2024-03-08T03:50:27;25.27;;;14.03;;
1699;SDS011;847;48.058;7.810;2024-03-08T03:52:56;24.27;;;13.70;;
1699;SDS011;847;48.058;7.810;2024-03-08T03:55:23;22.83;;;14.30;;
1699;SDS011;847;48.058;7.810;2024-03-08T03:57:50;22.23;;;13.03;;
1699;SDS011;847;48.058;7.810;2024-03-08T04:00:18;25.20;;;14.20;;
1699;SDS011;847;48.058;7.810;2024-03-08T04:02:45;25.57;;;14.07;;
1699;SDS011;847;48.058;7.810;2024-03-08T04:05:14;26.23;;;12.83;;
1699;SDS011;847;48.058;7.810;2024-03-08T04:07:42;22.00;;;12.37;;
1699;SDS011;847;48.058;7.810;2024-03-08T04:10:10;19.83;;;12.43;;
1699;SDS011;847;48.058;7.810;2024-03-08T04:12:38;25.67;;;13.10;;
1699;SDS011;847;48.058;7.810;2024-03-08T04:15:05;19.70;;;12.47;;
1699;SDS011;847;48.058;7.810;2024-03-08T04:17:33;20.73;;;13.33;;
1699;SDS011;847;48.058;7.810;2024-03-08T04:20:02;23.70;;;13.47;;
1699;SDS011;847;48.058;7.810;2024-03-08T04:22:36;20.13;;;12.20;;
1699;SDS011;847;48.058;7.810;2024-03-08T04:25:04;25.83;;;13.80;;
1699;SDS011;847;48.058;7.810;2024-03-08T04:27:32;23.90;;;13.47;;
1699;SDS011;847;48.058;7.810;2024-03-08T04:29:59;22.60;;;12.23;;
1699;SDS011;847;48.058;7.810;2024-03-08T04:32:26;21.23;;;12.40;;
1699;SDS011;847;48.058;7.810;2024-03-08T04:34:54;19.63;;;12.13;;
1699;SDS011;847;48.058;7.810;2024-03-08T04:37:21;20.80;;;13.00;;
1699;SDS011;847;48.058;7.810;2024-03-08T04:39:50;21.20;;;12.33;;
1699;SDS011;847;48.058;7.810;2024-03-08T04:42:17;19.67;;;13.23;;
1699;SDS011;847;48.058;7.810;2024-03-08T04:44:44;19.97;;;11.87;;
1699;SDS011;847;48.058;7.810;2024-03-08T04:47:20;25.30;;;13.40;;
1699;SDS011;847;48.058;7.810;2024-03-08T04:49:47;22.97;;;13.20;;
1699;SDS011;847;48.058;7.810;2024-03-08T04:52:15;22.70;;;14.57;;
1699;SDS011;847;48.058;7.810;2024-03-08T04:54:43;23.60;;;13.33;;
1699;SDS011;847;48.058;7.810;2024-03-08T04:57:12;20.43;;;11.70;;
1699;SDS011;847;48.058;7.810;2024-03-08T04:59:39;26.20;;;15.00;;
1699;SDS011;847;48.058;7.810;2024-03-08T05:02:06;25.73;;;14.60;;
1699;SDS011;847;48.058;7.810;2024-03-08T05:04:34;18.20;;;12.77;;
1699;SDS011;847;48.058;7.810;2024-03-08T05:07:01;22.50;;;14.47;;
1699;SDS011;847;48.058;7.810;2024-03-08T05:09:29;24.90;;;12.77;;
1699;SDS011;847;48.058;7.810;2024-03-08T05:11:56;18.43;;;12.10;;
1699;SDS011;847;48.058;7.810;2024-03-08T05:14:26;24.10;;;13.07;;
1699;SDS011;847;48.058;7.810;2024-03-08T05:16:53;23.03;;;12.10;;
1699;SDS011;847;48.058;7.810;2024-03-08T05:19:20;23.20;;;12.10;;
1699;SDS011;847;48.058;7.810;2024-03-08T05:21:47;20.70;;;12.27;;
1699;SDS011;847;48.058;7.810;2024-03-08T05:24:15;20.13;;;11.33;;
1699;SDS011;847;48.058;7.810;2024-03-08T05:26:42;21.43;;;13.00;;
1699;SDS011;847;48.058;7.810;2024-03-08T05:29:09;25.83;;;13.10;;
1699;SDS011;847;48.058;7.810;2024-03-08T05:31:47;24.43;;;14.83;;
1699;SDS011;847;48.058;7.810;2024-03-08T05:34:14;21.27;;;13.20;;
1699;SDS011;847;48.058;7.810;2024-03-08T05:36:42;20.80;;;12.50;;
1699;SDS011;847;48.058;7.810;2024-03-08T05:39:09;20.50;;;12.10;;
1699;SDS011;847;48.058;7.810;2024-03-08T05:41:37;19.70;;;12.90;;
1699;SDS011;847;48.058;7.810;2024-03-08T05:44:03;23.20;;;14.03;;
1699;SDS011;847;48.058;7.810;2024-03-08T05:46:30;20.80;;;13.40;;
1699;SDS011;847;48.058;7.810;2024-03-08T05:48:58;22.53;;;12.00;;
1699;SDS011;847;48.058;7.810;2024-03-08T05:51:25;22.77;;;13.03;;
1699;SDS011;847;48.058;7.810;2024-03-08T05:53:52;20.30;;;12.60;;
1699;SDS011;847;48.058;7.810;2024-03-08T05:56:22;22.33;;;14.70;;
1699;SDS011;847;48.058;7.810;2024-03-08T05:58:49;21.90;;;12.75;;
1699;SDS011;847;48.058;7.810;2024-03-08T06:01:15;22.97;;;13.53;;
1699;SDS011;847;48.058;7.810;2024-03-08T06:03:42;20.33;;;12.47;;
1699;SDS011;847;48.058;7.810;2024-03-08T06:06:12;22.17;;;14.23;;
1699;SDS011;847;48.058;7.810;2024-03-08T06:08:39;22.50;;;13.20;;
1699;SDS011;847;48.058;7.810;2024-03-08T06:11:08;21.97;;;13.50;;
1699;SDS011;847;48.058;7.810;2024-03-08T06:13:35;21.20;;;13.20;;
1699;SDS011;847;48.058;7.810;2024-03-08T06:16:02;25.63;;;14.87;;
1699;SDS011;847;48.058;7.810;2024-03-08T06:18:29;24.10;;;14.73;;
1699;SDS011;847;48.058;7.810;2024-03-08T06:20:56;22.90;;;13.80;;
1699;SDS011;847;48.058;7.810;2024-03-08T06:23:24;21.93;;;16.10;;
1699;SDS011;847;48.058;7.810;2024-03-08T06:25:52;26.67;;;15.27;;
1699;SDS011;847;48.058;7.810;2024-03-08T06:28:19;25.57;;;13.87;;
1699;SDS011;847;48.058;7.810;2024-03-08T06:30:46;27.20;;;17.27;;
1699;SDS011;847;48.058;7.810;2024-03-08T06:33:20;29.23;;;15.60;;
1699;SDS011;847;48.058;7.810;2024-03-08T06:35:57;25.43;;;15.00;;
1699;SDS011;847;48.058;7.810;2024-03-08T06:38:25;24.50;;;15.63;;
1699;SDS011;847;48.058;7.810;2024-03-08T06:40:52;30.60;;;16.13;;
1699;SDS011;847;48.058;7.810;2024-03-08T06:43:19;21.63;;;13.40;;
1699;SDS011;847;48.058;7.810;2024-03-08T06:45:46;27.57;;;14.20;;
1699;SDS011;847;48.058;7.810;2024-03-08T06:48:14;29.83;;;14.63;;
1699;SDS011;847;48.058;7.810;2024-03-08T06:50:42;20.53;;;14.03;;
1699;SDS011;847;48.058;7.810;2024-03-08T06:53:09;23.20;;;13.93;;
1699;SDS011;847;48.058;7.810;2024-03-08T06:55:37;25.43;;;15.03;;
1699;SDS011;847;48.058;7.810;2024-03-08T06:58:04;24.03;;;14.70;;
1699;SDS011;847;48.058;7.810;2024-03-08T07:00:31;29.07;;;16.00;;
1699;SDS011;847;48.058;7.810;2024-03-08T07:02:58;24.40;;;15.57;;
1699;SDS011;847;48.058;7.810;2024-03-08T07:05:26;23.20;;;14.60;;
1699;SDS011;847;48.058;7.810;2024-03-08T07:07:52;22.33;;;13.93;;
1699;SDS011;847;48.058;7.810;2024-03-08T07:10:19;24.23;;;14.60;;
1699;SDS011;847;48.058;7.810;2024-03-08T07:12:50;28.10;;;14.93;;
1699;SDS011;847;48.058;7.810;2024-03-08T07:15:20;28.10;;;17.63;;
1699;SDS011;847;48.058;7.810;2024-03-08T07:17:48;28.80;;;16.70;;
1699;SDS011;847;48.058;7.810;2024-03-08T07:20:17;27.13;;;16.33;;
1699;SDS011;847;48.058;7.810;2024-03-08T07:22:45;28.33;;;15.90;;
1699;SDS011;847;48.058;7.810;2024-03-08T07:25:17;27.57;;;15.50;;
1699;SDS011;847;48.058;7.810;2024-03-08T07:27:47;25.57;;;14.07;;
1699;SDS011;847;48.058;7.810;2024-03-08T07:30:18;21.20;;;13.87;;
1699;SDS011;847;48.058;7.810;2024-03-08T07:33:03;26.43;;;16.90;;
1699;SDS011;847;48.058;7.810;2024-03-08T07:35:32;28.53;;;15.90;;
1699;SDS011;847;48.058;7.810;2024-03-08T07:38:03;26.20;;;16.33;;
1699;SDS011;847;48.058;7.810;2024-03-08T07:40:32;28.57;;;15.93;;
1699;SDS011;847;48.058;7.810;2024-03-08T07:43:03;30.50;;;17.73;;
1699;SDS011;847;48.058;7.810;2024-03-08T07:45:33;30.67;;;19.67;;
1699;SDS011;847;48.058;7.810;2024-03-08T07:48:03;27.40;;;17.10;;
1699;SDS011;847;48.058;7.810;2024-03-08T07:50:35;28.57;;;15.53;;
1699;SDS011;847;48.058;7.810;2024-03-08T07:53:04;22.10;;;13.80;;
1699;SDS011;847;48.058;7.810;2024-03-08T07:55:32;25.60;;;13.50;;
1699;SDS011;847;48.058;7.810;2024-03-08T07:58:00;23.40;;;13.93;;
1699;SDS011;847;48.058;7.810;2024-03-08T08:00:36;25.90;;;14.37;;
1699;SDS011;847;48.058;7.810;2024-03-08T08:03:04;26.60;;;14.57;;
1699;SDS011;847;48.058;7.810;2024-03-08T08:05:33;22.50;;;14.00;;
1699;SDS011;847;48.058;7.810;2024-03-08T08:08:00;22.00;;;14.20;;
1699;SDS011;847;48.058;7.810;2024-03-08T08:10:31;25.87;;;16.70;;
1699;SDS011;847;48.058;7.810;2024-03-08T08:12:58;25.80;;;15.90;;
1699;SDS011;847;48.058;7.810;2024-03-08T08:15:28;23.67;;;15.10;;
1699;SDS011;847;48.058;7.810;2024-03-08T08:17:55;29.80;;;16.20;;
1699;SDS011;847;48.058;7.810;2024-03-08T08:20:31;25.93;;;15.30;;
1699;SDS011;847;48.058;7.810;2024-03-08T08:22:58;28.27;;;16.53;;
1699;SDS011;847;48.058;7.810;2024-03-08T08:25:25;27.03;;;16.93;;
1699;SDS011;847;48.058;7.810;2024-03-08T08:27:52;30.80;;;17.67;;
1699;SDS011;847;48.058;7.810;2024-03-08T08:30:20;27.77;;;17.53;;
1699;SDS011;847;48.058;7.810;2024-03-08T08:32:57;33.80;;;18.80;;
1699;SDS011;847;48.058;7.810;2024-03-08T08:35:47;23.63;;;16.07;;
1699;SDS011;847;48.058;7.810;2024-03-08T08:38:18;24.43;;;14.77;;
1699;SDS011;847;48.058;7.810;2024-03-08T08:40:47;25.30;;;15.20;;
1699;SDS011;847;48.058;7.810;2024-03-08T08:43:15;24.23;;;13.73;;
1699;SDS011;847;48.058;7.810;2024-03-08T08:45:44;24.07;;;17.20;;
1699;SDS011;847;48.058;7.810;2024-03-08T08:48:17;30.07;;;18.10;;
1699;SDS011;847;48.058;7.810;2024-03-08T08:50:45;23.83;;;14.63;;
1699;SDS011;847;48.058;7.810;2024-03-08T08:53:14;24.30;;;15.90;;
1699;SDS011;847;48.058;7.810;2024-03-08T08:55:42;23.47;;;15.57;;
1699;SDS011;847;48.058;7.810;2024-03-08T08:58:13;22.90;;;14.50;;
1699;SDS011;847;48.058;7.810;2024-03-08T09:00:40;26.23;;;14.67;;
1699;SDS011;847;48.058;7.810;2024-03-08T09:03:09;24.53;;;14.10;;
1699;SDS011;847;48.058;7.810;2024-03-08T09:05:39;21.20;;;13.87;;
1699;SDS011;847;48.058;7.810;2024-03-08T09:08:08;24.63;;;14.40;;
1699;SDS011;847;48.058;7.810;2024-03-08T09:10:36;21.67;;;14.33;;
1699;SDS011;847;48.058;7.810;2024-03-08T09:13:04;23.97;;;14.70;;
1699;SDS011;847;48.058;7.810;2024-03-08T09:15:34;22.53;;;14.07;;
1699;SDS011;847;48.058;7.810;2024-03-08T09:18:01;19.50;;;12.80;;
1699;SDS011;847;48.058;7.810;2024-03-08T09:23:48;22.17;;;15.67;;
1699;SDS011;847;48.058;7.810;2024-03-08T09:26:16;25.40;;;17.90;;
1699;SDS011;847;48.058;7.810;2024-03-08T09:28:43;23.87;;;14.67;;
1699;SDS011;847;48.058;7.810;2024-03-08T09:31:10;27.13;;;15.93;;
1699;SDS011;847;48.058;7.810;2024-03-08T09:33:37;21.90;;;13.43;;
1699;SDS011;847;48.058;7.810;2024-03-08T09:36:05;25.87;;;14.77;;
1699;SDS011;847;48.058;7.810;2024-03-08T09:38:33;27.63;;;14.67;;
1699;SDS011;847;48.058;7.810;2024-03-08T09:41:02;22.73;;;13.67;;
1699;SDS011;847;48.058;7.810;2024-03-08T09:46:21;24.20;;;15.40;;
1699;SDS011;847;48.058;7.810;2024-03-08T09:51:34;20.30;;;14.20;;
1699;SDS011;847;48.058;7.810;2024-03-08T09:54:01;21.77;;;13.77;;
1699;SDS011;847;48.058;7.810;2024-03-08T09:56:31;23.33;;;13.50;;
1699;SDS011;847;48.058;7.810;2024-03-08T09:58:59;21.77;;;13.93;;
1699;SDS011;847;48.058;7.810;2024-03-08T10:01:46;24.20;;;14.77;;
1699;SDS011;847;48.058;7.810;2024-03-08T10:04:13;24.27;;;15.03;;
1699;SDS011;847;48.058;7.810;2024-03-08T10:06:40;25.13;;;15.97;;
1699;SDS011;847;48.058;7.810;2024-03-08T10:09:08;23.00;;;14.90;;
1699;SDS011;847;48.058;7.810;2024-03-08T10:11:37;22.93;;;15.77;;
1699;SDS011;847;48.058;7.810;2024-03-08T10:14:06;25.47;;;14.63;;
1699;SDS011;847;48.058;7.810;2024-03-08T10:16:35;26.67;;;15.20;;
1699;SDS011;847;48.058;7.810;2024-03-08T10:19:04;23.20;;;15.30;;
1699;SDS011;847;48.058;7.810;2024-03-08T10:21:32;22.30;;;14.10;;
1699;SDS011;847;48.058;7.810;2024-03-08T10:23:59;23.27;;;14.50;;
1699;SDS011;847;48.058;7.810;2024-03-08T10:26:28;27.10;;;16.43;;
1699;SDS011;847;48.058;7.810;2024-03-08T10:28:57;25.83;;;13.93;;
1699;SDS011;847;48.058;7.810;2024-03-08T10:31:24;26.70;;;15.30;;
1699;SDS011;847;48.058;7.810;2024-03-08T10:33:51;24.27;;;15.07;;
1699;SDS011;847;48.058;7.810;2024-03-08T10:36:19;25.17;;;14.00;;
1699;SDS011;847;48.058;7.810;2024-03-08T10:38:46;20.93;;;14.30;;
1699;SDS011;847;48.058;7.810;2024-03-08T10:41:17;21.87;;;13.50;;
1699;SDS011;847;48.058;7.810;2024-03-08T10:43:51;24.20;;;13.70;;
1699;SDS011;847;48.058;7.810;2024-03-08T10:46:35;20.70;;;13.50;;
1699;SDS011;847;48.058;7.810;2024-03-08T10:49:08;19.13;;;12.97;;
1699;SDS011;847;48.058;7.810;2024-03-08T10:51:42;16.30;;;11.80;;
1699;SDS011;847;48.058;7.810;2024-03-08T10:54:11;20.20;;;13.27;;
1699;SDS011;847;48.058;7.810;2024-03-08T10:56:40;22.00;;;13.33;;
1699;SDS011;847;48.058;7.810;2024-03-08T10:59:07;19.33;;;13.23;;
1699;SDS011;847;48.058;7.810;2024-03-08T11:01:36;20.17;;;13.30;;
1699;SDS011;847;48.058;7.810;2024-03-08T11:04:03;25.13;;;14.50;;
1699;SDS011;847;48.058;7.810;2024-03-08T11:06:31;21.30;;;14.77;;
1699;SDS011;847;48.058;7.810;2024-03-08T11:09:11;21.10;;;12.23;;
1699;SDS011;847;48.058;7.810;2024-03-08T11:14:46;20.13;;;13.50;;
1699;SDS011;847;48.058;7.810;2024-03-08T11:17:16;22.53;;;14.53;;
1699;SDS011;847;48.058;7.810;2024-03-08T11:19:48;20.90;;;12.23;;
1699;SDS011;847;48.058;7.810;2024-03-08T11:22:23;18.63;;;12.90;;
1699;SDS011;847;48.058;7.810;2024-03-08T11:24:58;19.23;;;12.43;;
1699;SDS011;847;48.058;7.810;2024-03-08T11:27:28;18.87;;;13.90;;
1699;SDS011;847;48.058;7.810;2024-03-08T11:30:00;21.27;;;14.43;;
1699;SDS011;847;48.058;7.810;2024-03-08T11:32:37;19.83;;;14.00;;
1699;SDS011;847;48.058;7.810;2024-03-08T11:35:07;21.93;;;13.50;;
1699;SDS011;847;48.058;7.810;2024-03-08T11:37:45;24.40;;;15.13;;
1699;SDS011;847;48.058;7.810;2024-03-08T11:40:13;18.97;;;13.23;;
1699;SDS011;847;48.058;7.810;2024-03-08T11:42:43;22.93;;;14.63;;
1699;SDS011;847;48.058;7.810;2024-03-08T11:45:11;23.10;;;16.33;;
1699;SDS011;847;48.058;7.810;2024-03-08T11:47:40;26.13;;;16.20;;
1699;SDS011;847;48.058;7.810;2024-03-08T11:50:10;21.93;;;14.50;;
1699;SDS011;847;48.058;7.810;2024-03-08T11:52:37;24.80;;;16.50;;
1699;SDS011;847;48.058;7.810;2024-03-08T11:55:04;26.20;;;16.80;;
1699;SDS011;847;48.058;7.810;2024-03-08T11:57:32;23.33;;;15.77;;
1699;SDS011;847;48.058;7.810;2024-03-08T11:59:59;25.60;;;17.20;;
1699;SDS011;847;48.058;7.810;2024-03-08T12:02:32;24.57;;;17.63;;
1699;SDS011;847;48.058;7.810;2024-03-08T12:05:02;21.37;;;15.43;;
1699;SDS011;847;48.058;7.810;2024-03-08T12:07:34;21.10;;;14.50;;
1699;SDS011;847;48.058;7.810;2024-03-08T12:10:14;23.30;;;15.80;;
1699;SDS011;847;48.058;7.810;2024-03-08T12:12:43;23.80;;;16.00;;
1699;SDS011;847;48.058;7.810;2024-03-08T12:15:10;21.67;;;14.70;;
1699;SDS011;847;48.058;7.810;2024-03-08T12:17:37;24.57;;;15.87;;
1699;SDS011;847;48.058;7.810;2024-03-08T12:20:12;23.13;;;15.30;;
1699;SDS011;847;48.058;7.810;2024-03-08T12:22:41;21.27;;;15.73;;
1699;SDS011;847;48.058;7.810;2024-03-08T12:25:09;20.50;;;14.67;;
1699;SDS011;847;48.058;7.810;2024-03-08T12:27:37;24.63;;;17.73;;
1699;SDS011;847;48.058;7.810;2024-03-08T12:30:20;23.83;;;16.20;;
1699;SDS011;847;48.058;7.810;2024-03-08T12:32:52;18.47;;;14.27;;
1699;SDS011;847;48.058;7.810;2024-03-08T12:35:23;21.67;;;14.13;;
1699;SDS011;847;48.058;7.810;2024-03-08T12:37:55;24.30;;;14.27;;
1699;SDS011;847;48.058;7.810;2024-03-08T12:40:25;19.83;;;14.60;;
1699;SDS011;847;48.058;7.810;2024-03-08T12:42:54;19.43;;;14.50;;
1699;SDS011;847;48.058;7.810;2024-03-08T12:45:21;23.37;;;14.20;;
1699;SDS011;847;48.058;7.810;2024-03-08T12:47:49;18.70;;;12.10;;
1699;SDS011;847;48.058;7.810;2024-03-08T12:50:16;21.83;;;13.90;;
1699;SDS011;847;48.058;7.810;2024-03-08T12:52:44;18.20;;;13.87;;
1699;SDS011;847;48.058;7.810;2024-03-08T12:55:11;19.00;;;14.37;;
1699;SDS011;847;48.058;7.810;2024-03-08T12:57:38;20.77;;;14.37;;
1699;SDS011;847;48.058;7.810;2024-03-08T13:00:06;21.83;;;14.20;;
1699;SDS011;847;48.058;7.810;2024-03-08T13:02:38;19.77;;;12.30;;
1699;SDS011;847;48.058;7.810;2024-03-08T13:05:05;18.17;;;14.13;;
1699;SDS011;847;48.058;7.810;2024-03-08T13:07:34;21.40;;;13.43;;
1699;SDS011;847;48.058;7.810;2024-03-08T13:10:04;17.20;;;12.77;;
1699;SDS011;847;48.058;7.810;2024-03-08T13:12:32;16.63;;;12.27;;
1699;SDS011;847;48.058;7.810;2024-03-08T13:15:00;18.07;;;13.70;;
1699;SDS011;847;48.058;7.810;2024-03-08T13:17:30;17.03;;;11.90;;
1699;SDS011;847;48.058;7.810;2024-03-08T13:19:56;18.57;;;13.30;;
1699;SDS011;847;48.058;7.810;2024-03-08T13:22:24;18.10;;;13.10;;
1699;SDS011;847;48.058;7.810;2024-03-08T13:24:50;17.97;;;13.10;;
1699;SDS011;847;48.058;7.810;2024-03-08T13:27:19;16.60;;;12.90;;
1699;SDS011;847;48.058;7.810;2024-03-08T13:29:47;20.27;;;12.70;;
1699;SDS011;847;48.058;7.810;2024-03-08T13:32:14;19.70;;;13.00;;
1699;SDS011;847;48.058;7.810;2024-03-08T13:34:41;17.47;;;13.53;;
1699;SDS011;847;48.058;7.810;2024-03-08T13:37:10;17.97;;;12.60;;
1699;SDS011;847;48.058;7.810;2024-03-08T13:39:37;18.40;;;12.67;;
1699;SDS011;847;48.058;7.810;2024-03-08T13:42:08;20.43;;;13.57;;
1699;SDS011;847;48.058;7.810;2024-03-08T13:44:39;17.00;;;12.07;;
1699;SDS011;847;48.058;7.810;2024-03-08T13:47:09;21.37;;;13.50;;
1699;SDS011;847;48.058;7.810;2024-03-08T13:49:36;18.90;;;13.20;;
1699;SDS011;847;48.058;7.810;2024-03-08T13:52:04;18.60;;;13.13;;
1699;SDS011;847;48.058;7.810;2024-03-08T13:54:33;18.23;;;12.17;;
1699;SDS011;847;48.058;7.810;2024-03-08T13:57:00;20.67;;;14.00;;
1699;SDS011;847;48.058;7.810;2024-03-08T13:59:28;18.57;;;13.80;;
1699;SDS011;847;48.058;7.810;2024-03-08T14:01:59;23.10;;;14.63;;
1699;SDS011;847;48.058;7.810;2024-03-08T14:04:27;20.50;;;13.27;;
1699;SDS011;847;48.058;7.810;2024-03-08T14:06:54;17.70;;;13.67;;
1699;SDS011;847;48.058;7.810;2024-03-08T14:09:24;16.77;;;13.37;;
1699;SDS011;847;48.058;7.810;2024-03-08T14:11:51;18.77;;;12.87;;
1699;SDS011;847;48.058;7.810;2024-03-08T14:14:19;17.57;;;13.10;;
1699;SDS011;847;48.058;7.810;2024-03-08T14:16:48;15.40;;;12.57;;
1699;SDS011;847;48.058;7.810;2024-03-08T14:19:19;18.67;;;13.03;;
1699;SDS011;847;48.058;7.810;2024-03-08T14:21:45;16.10;;;11.77;;
1699;SDS011;847;48.058;7.810;2024-03-08T14:24:13;16.80;;;13.13;;
1699;SDS011;847;48.058;7.810;2024-03-08T14:26:43;19.73;;;13.43;;
1699;SDS011;847;48.058;7.810;2024-03-08T14:29:11;17.67;;;13.33;;
1699;SDS011;847;48.058;7.810;2024-03-08T14:31:38;20.70;;;14.80;;
1699;SDS011;847;48.058;7.810;2024-03-08T14:34:08;16.57;;;12.20;;
1699;SDS011;847;48.058;7.810;2024-03-08T14:36:36;17.57;;;12.80;;
1699;SDS011;847;48.058;7.810;2024-03-08T14:39:03;20.87;;;13.80;;
1699;SDS011;847;48.058;7.810;2024-03-08T14:41:33;21.67;;;14.77;;
1699;SDS011;847;48.058;7.810;2024-03-08T14:44:00;21.13;;;14.27;;
1699;SDS011;847;48.058;7.810;2024-03-08T14:46:28;22.00;;;13.97;;
1699;SDS011;847;48.058;7.810;2024-03-08T14:48:55;18.37;;;13.40;;
1699;SDS011;847;48.058;7.810;2024-03-08T14:51:22;18.40;;;13.57;;
1699;SDS011;847;48.058;7.810;2024-03-08T14:53:52;19.20;;;14.17;;
1699;SDS011;847;48.058;7.810;2024-03-08T14:56:20;19.40;;;13.53;;
1699;SDS011;847;48.058;7.810;2024-03-08T14:58:48;17.97;;;12.60;;
1699;SDS011;847;48.058;7.810;2024-03-08T15:01:16;16.97;;;12.70;;
1699;SDS011;847;48.058;7.810;2024-03-08T15:03:47;17.73;;;12.70;;
1699;SDS011;847;48.058;7.810;2024-03-08T15:06:14;22.30;;;13.77;;
1699;SDS011;847;48.058;7.810;2024-03-08T15:08:45;19.43;;;13.60;;
1699;SDS011;847;48.058;7.810;2024-03-08T15:11:13;18.60;;;13.40;;
1699;SDS011;847;48.058;7.810;2024-03-08T15:13:46;18.23;;;12.70;;
1699;SDS011;847;48.058;7.810;2024-03-08T15:16:16;20.10;;;14.60;;
1699;SDS011;847;48.058;7.810;2024-03-08T15:18:44;21.50;;;15.00;;
1699;SDS011;847;48.058;7.810;2024-03-08T15:21:16;20.67;;;14.00;;
1699;SDS011;847;48.058;7.810;2024-03-08T15:23:44;19.50;;;13.10;;